createdAt,value
2022-08-26T00:02:07.338Z,21.80
2022-08-26T00:04:35.704Z,21.80
2022-08-26T00:07:03.777Z,21.70
2022-08-26T00:09:38.975Z,21.70
2022-08-26T00:12:09.353Z,21.70
2022-08-26T00:14:42.226Z,21.80
2022-08-26T00:17:10.721Z,21.80
2022-08-26T00:19:38.816Z,21.80
2022-08-26T00:22:07.244Z,21.80
2022-08-26T00:24:35.230Z,21.80
2022-08-26T00:27:03.222Z,21.90
2022-08-26T00:29:34.850Z,21.90
2022-08-26T00:32:07.300Z,21.90
2022-08-26T00:34:36.294Z,22.00
2022-08-26T00:37:04.752Z,22.00
2022-08-26T00:39:38.064Z,21.90
2022-08-26T00:42:06.391Z,21.90
2022-08-26T00:44:34.370Z,21.80
2022-08-26T00:47:06.765Z,21.80
2022-08-26T00:49:40.497Z,21.90
2022-08-26T00:52:11.967Z,21.80
2022-08-26T00:54:46.861Z,21.80
2022-08-26T00:57:18.219Z,21.80
2022-08-26T00:59:47.904Z,21.80
2022-08-26T01:02:20.753Z,21.80
2022-08-26T01:04:55.862Z,21.80
2022-08-26T01:07:26.477Z,21.90
2022-08-26T01:09:56.121Z,21.90
2022-08-26T01:12:26.192Z,22.00
2022-08-26T01:14:54.654Z,22.00
2022-08-26T01:17:22.793Z,22.00
2022-08-26T01:19:58.061Z,21.90
2022-08-26T01:22:32.576Z,21.90
2022-08-26T01:25:03.630Z,21.90
2022-08-26T01:27:33.556Z,21.90
2022-08-26T01:30:03.165Z,21.80
2022-08-26T01:32:34.101Z,21.90
2022-08-26T01:35:03.322Z,21.80
2022-08-26T01:37:37.290Z,21.70
2022-08-26T01:40:15.065Z,21.80
2022-08-26T01:42:46.563Z,21.70
2022-08-26T01:45:18.353Z,21.70
2022-08-26T01:47:48.627Z,21.60
2022-08-26T01:50:28.036Z,21.60
2022-08-26T01:53:01.414Z,21.50
2022-08-26T01:55:32.797Z,21.50
2022-08-26T01:58:07.438Z,21.40
2022-08-26T02:00:36.338Z,21.30
2022-08-26T02:03:19.043Z,21.30
2022-08-26T02:05:51.441Z,21.40
2022-08-26T02:08:25.297Z,21.30
2022-08-26T02:10:55.317Z,21.30
2022-08-26T02:13:25.648Z,21.30
2022-08-26T02:15:55.215Z,21.40
2022-08-26T02:18:24.797Z,21.40
2022-08-26T02:20:55.216Z,21.40
2022-08-26T02:23:24.477Z,21.40
2022-08-26T02:25:58.836Z,21.50
2022-08-26T02:28:29.770Z,21.60
2022-08-26T02:30:58.270Z,21.50
2022-08-26T02:33:29.147Z,21.40
2022-08-26T02:35:57.628Z,21.40
2022-08-26T02:38:26.049Z,21.30
2022-08-26T02:40:55.464Z,21.30
2022-08-26T02:43:31.226Z,21.30
2022-08-26T02:46:01.908Z,21.30
2022-08-26T02:48:31.029Z,21.30
2022-08-26T02:51:01.814Z,21.30
2022-08-26T02:53:31.934Z,21.30
2022-08-26T02:56:01.579Z,21.20
2022-08-26T02:58:31.761Z,21.10
2022-08-26T03:00:59.821Z,21.10
2022-08-26T03:03:30.128Z,21.00
2022-08-26T03:05:58.896Z,21.10
2022-08-26T03:08:26.853Z,21.10
2022-08-26T03:10:55.325Z,21.10
2022-08-26T03:13:25.378Z,21.10
2022-08-26T03:15:53.467Z,21.20
2022-08-26T03:18:21.493Z,21.10
2022-08-26T03:20:49.554Z,21.10
2022-08-26T03:23:18.597Z,21.10
2022-08-26T03:25:51.072Z,21.20
2022-08-26T03:28:19.281Z,21.00
2022-08-26T03:30:49.166Z,20.90
2022-08-26T03:33:17.422Z,20.90
2022-08-26T03:35:47.368Z,20.80
2022-08-26T03:38:16.041Z,20.70
2022-08-26T03:40:45.437Z,20.70
2022-08-26T03:43:14.223Z,20.60
2022-08-26T03:45:42.529Z,20.60
2022-08-26T03:48:12.393Z,20.70
2022-08-26T03:50:40.598Z,20.60
2022-08-26T03:53:12.740Z,20.70
2022-08-26T03:55:42.215Z,20.70
2022-08-26T03:58:11.860Z,20.80
2022-08-26T04:00:39.842Z,20.80
2022-08-26T04:03:09.944Z,20.80
2022-08-26T04:05:39.612Z,20.80
2022-08-26T04:08:08.128Z,20.80
2022-08-26T04:10:38.901Z,20.70
2022-08-26T04:13:06.970Z,20.60
2022-08-26T04:15:35.142Z,20.70
2022-08-26T04:18:03.180Z,20.50
2022-08-26T04:20:31.908Z,20.50
2022-08-26T04:23:01.501Z,20.50
2022-08-26T04:25:29.724Z,20.40
2022-08-26T04:27:57.841Z,20.30
2022-08-26T04:30:26.012Z,20.30
2022-08-26T04:32:54.019Z,20.30
2022-08-26T04:35:25.756Z,20.30
2022-08-26T04:37:55.257Z,20.30
2022-08-26T04:40:27.031Z,20.30
2022-08-26T04:42:55.390Z,20.30
2022-08-26T04:45:23.735Z,20.40
2022-08-26T04:47:56.710Z,20.50
2022-08-26T04:50:25.716Z,20.50
2022-08-26T04:52:55.270Z,20.60
2022-08-26T04:55:39.708Z,20.60
2022-08-26T04:58:11.310Z,20.70
2022-08-26T05:00:40.319Z,20.70
2022-08-26T05:03:10.454Z,20.60
2022-08-26T05:05:43.185Z,20.60
2022-08-26T05:08:12.276Z,20.60
2022-08-26T05:10:42.734Z,20.60
2022-08-26T05:13:15.119Z,20.60
2022-08-26T05:15:44.961Z,20.70
2022-08-26T05:18:14.081Z,20.60
2022-08-26T05:20:43.151Z,20.70
2022-08-26T05:23:11.191Z,20.70
2022-08-26T05:25:43.045Z,20.80
2022-08-26T05:28:13.560Z,20.80
2022-08-26T05:30:42.272Z,21.00
2022-08-26T05:33:12.932Z,21.10
2022-08-26T05:35:41.541Z,21.10
2022-08-26T05:38:12.928Z,21.30
2022-08-26T05:40:44.594Z,21.50
2022-08-26T05:43:13.933Z,21.60
2022-08-26T05:45:46.256Z,21.60
2022-08-26T05:48:16.117Z,21.60
2022-08-26T05:50:45.840Z,21.80
2022-08-26T05:53:17.453Z,21.80
2022-08-26T05:55:49.352Z,21.90
2022-08-26T05:58:20.059Z,22.00
2022-08-26T06:00:56.858Z,22.10
2022-08-26T06:03:24.862Z,22.20
2022-08-26T06:05:53.319Z,22.40
2022-08-26T06:08:21.742Z,22.70
2022-08-26T06:10:53.597Z,22.90
2022-08-26T06:13:24.069Z,23.10
2022-08-26T06:15:52.723Z,22.90
2022-08-26T06:18:22.596Z,23.00
2022-08-26T06:20:57.278Z,23.00
2022-08-26T06:23:44.027Z,23.00
2022-08-26T06:26:14.248Z,23.20
2022-08-26T06:28:43.569Z,23.20
2022-08-26T06:31:14.142Z,23.30
2022-08-26T06:33:42.360Z,23.60
2022-08-26T06:36:10.660Z,23.90
2022-08-26T06:38:38.674Z,23.90
2022-08-26T06:41:11.692Z,24.00
2022-08-26T06:43:41.194Z,24.20
2022-08-26T06:46:11.817Z,24.20
2022-08-26T06:48:40.626Z,24.20
2022-08-26T06:51:11.138Z,24.10
2022-08-26T06:53:41.145Z,24.00
2022-08-26T06:56:11.001Z,23.80
2022-08-26T06:58:41.493Z,23.80
2022-08-26T07:01:18.215Z,24.00
2022-08-26T07:03:48.046Z,24.10
2022-08-26T07:06:18.568Z,24.40
2022-08-26T07:08:47.003Z,24.60
2022-08-26T07:11:15.986Z,24.80
2022-08-26T07:13:46.741Z,24.90
2022-08-26T07:16:17.693Z,24.90
2022-08-26T07:18:46.221Z,25.10
2022-08-26T07:21:17.261Z,25.00
2022-08-26T07:23:46.405Z,25.00
2022-08-26T07:26:17.145Z,25.20
2022-08-26T07:28:48.686Z,25.20
2022-08-26T07:31:17.725Z,25.40
2022-08-26T07:33:46.341Z,25.50
2022-08-26T07:36:15.962Z,25.50
2022-08-26T07:38:45.372Z,25.80
2022-08-26T07:41:15.079Z,26.00
2022-08-26T07:43:43.819Z,26.00
2022-08-26T07:46:20.841Z,26.00
2022-08-26T07:48:58.670Z,26.40
2022-08-26T07:51:28.363Z,26.80
2022-08-26T07:53:56.794Z,27.10
2022-08-26T07:56:25.619Z,27.20
2022-08-26T07:58:54.981Z,27.40
2022-08-26T08:01:26.814Z,27.60
2022-08-26T08:03:56.563Z,27.70
2022-08-26T08:06:28.161Z,27.80
2022-08-26T08:08:57.178Z,27.90
2022-08-26T08:11:27.170Z,27.90
2022-08-26T08:13:56.480Z,28.00
2022-08-26T08:16:26.782Z,28.10
2022-08-26T08:18:56.605Z,28.10
2022-08-26T08:21:25.799Z,28.20
2022-08-26T08:23:55.950Z,28.40
2022-08-26T08:26:25.579Z,28.30
2022-08-26T08:28:56.465Z,28.50
2022-08-26T08:31:56.108Z,28.50
2022-08-26T08:34:16.072Z,28.60
2022-08-26T08:36:46.807Z,28.60
2022-08-26T08:39:14.864Z,28.80
2022-08-26T08:41:51.863Z,28.80
2022-08-26T08:44:31.233Z,29.00
2022-08-26T08:47:06.084Z,28.90
2022-08-26T08:49:35.517Z,29.10
2022-08-26T08:52:10.720Z,29.40
2022-08-26T08:54:39.459Z,29.40
2022-08-26T08:57:12.983Z,29.20
2022-08-26T08:59:52.023Z,29.60
2022-08-26T09:02:29.601Z,29.80
2022-08-26T09:05:15.071Z,29.90
2022-08-26T09:07:47.486Z,29.90
2022-08-26T09:10:28.491Z,30.00
2022-08-26T09:12:56.641Z,30.10
2022-08-26T09:15:30.449Z,30.20
2022-08-26T09:18:10.808Z,30.10
2022-08-26T09:20:51.006Z,30.50
2022-08-26T09:23:19.512Z,30.20
2022-08-26T09:25:49.995Z,29.80
2022-08-26T09:28:19.742Z,29.00
2022-08-26T09:30:58.706Z,29.20
2022-08-26T09:33:31.744Z,29.10
2022-08-26T09:36:15.902Z,29.00
2022-08-26T09:38:44.790Z,29.00
2022-08-26T09:41:28.188Z,29.10
2022-08-26T09:44:15.792Z,29.00
2022-08-26T09:46:53.443Z,29.10
2022-08-26T09:49:31.674Z,29.00
2022-08-26T09:52:12.542Z,28.90
2022-08-26T09:54:41.206Z,28.80
2022-08-26T09:57:19.014Z,28.70
2022-08-26T09:59:49.248Z,28.70
2022-08-26T10:02:30.299Z,28.70
2022-08-26T10:05:04.478Z,28.70
2022-08-26T10:07:43.622Z,28.80
2022-08-26T10:10:16.576Z,28.80
2022-08-26T10:12:55.583Z,28.80
2022-08-26T10:15:25.889Z,28.60
2022-08-26T10:18:00.628Z,28.70
2022-08-26T10:20:35.795Z,28.70
2022-08-26T10:23:06.183Z,28.70
2022-08-26T10:25:37.543Z,28.80
2022-08-26T10:28:11.722Z,28.80
2022-08-26T10:30:44.538Z,28.80
2022-08-26T10:33:15.386Z,28.90
2022-08-26T10:35:52.559Z,29.00
2022-08-26T10:38:29.251Z,29.20
2022-08-26T10:41:03.575Z,29.40
2022-08-26T10:43:42.377Z,29.70
2022-08-26T10:46:17.113Z,30.00
2022-08-26T10:48:49.365Z,30.30
2022-08-26T10:51:27.621Z,30.50
2022-08-26T10:53:59.978Z,30.60
2022-08-26T10:56:44.661Z,30.60
2022-08-26T10:59:23.809Z,30.50
2022-08-26T11:01:59.207Z,30.30
2022-08-26T11:04:47.553Z,30.10
2022-08-26T11:07:33.746Z,30.00
2022-08-26T11:10:03.996Z,30.00
2022-08-26T11:13:03.479Z,30.00
2022-08-26T11:15:58.686Z,30.10
2022-08-26T11:18:48.570Z,30.20
2022-08-26T11:21:52.012Z,30.20
2022-08-26T11:24:45.092Z,30.30
2022-08-26T11:27:54.312Z,30.40
2022-08-26T11:30:42.725Z,30.50
2022-08-26T11:33:12.747Z,31.30
2022-08-26T11:35:49.826Z,31.90
2022-08-26T11:38:26.403Z,32.40
2022-08-26T11:41:08.894Z,32.80
2022-08-26T11:43:38.775Z,33.20
2022-08-26T11:46:10.535Z,33.00
2022-08-26T11:48:40.594Z,32.90
2022-08-26T11:51:11.139Z,32.80
2022-08-26T11:53:41.421Z,32.70
2022-08-26T11:56:17.735Z,32.50
2022-08-26T11:58:48.102Z,32.30
2022-08-26T12:01:27.540Z,32.10
2022-08-26T12:04:01.033Z,31.10
2022-08-26T12:06:32.021Z,30.50
2022-08-26T12:09:02.849Z,30.60
2022-08-26T12:11:35.524Z,30.60
2022-08-26T12:14:07.271Z,30.20
2022-08-26T12:16:37.906Z,30.60
2022-08-26T12:19:27.439Z,30.70
2022-08-26T12:22:01.698Z,31.60
2022-08-26T12:24:30.314Z,32.20
2022-08-26T12:27:17.137Z,32.30
2022-08-26T12:29:48.516Z,32.10
2022-08-26T12:32:19.340Z,32.30
2022-08-26T12:34:49.956Z,31.70
2022-08-26T12:37:18.985Z,31.30
2022-08-26T12:39:47.873Z,31.10
2022-08-26T12:42:42.126Z,30.60
2022-08-26T12:45:10.901Z,30.80
2022-08-26T12:47:44.001Z,30.90
2022-08-26T12:50:19.437Z,31.00
2022-08-26T12:52:58.283Z,30.90
2022-08-26T12:55:35.352Z,31.20
2022-08-26T12:58:27.407Z,31.10
2022-08-26T13:00:57.604Z,31.40
2022-08-26T13:03:44.737Z,31.70
2022-08-26T13:06:25.792Z,31.90
2022-08-26T13:08:55.302Z,32.00
2022-08-26T13:11:25.803Z,31.90
2022-08-26T13:13:58.422Z,31.50
2022-08-26T13:16:27.479Z,31.00
2022-08-26T13:18:58.724Z,30.70
2022-08-26T13:21:29.676Z,30.80
2022-08-26T13:24:09.141Z,30.30
2022-08-26T13:26:37.218Z,30.00
2022-08-26T13:29:10.169Z,30.20
2022-08-26T13:31:40.766Z,30.50
2022-08-26T13:34:09.602Z,30.80
2022-08-26T13:36:37.693Z,31.20
2022-08-26T13:39:06.078Z,31.00
2022-08-26T13:41:34.124Z,30.90
2022-08-26T13:44:02.307Z,31.10
2022-08-26T13:46:31.924Z,30.90
2022-08-26T13:49:00.033Z,30.90
2022-08-26T13:51:29.685Z,31.20
2022-08-26T13:53:58.374Z,31.80
2022-08-26T13:56:29.434Z,32.20
2022-08-26T13:58:57.615Z,32.50
2022-08-26T14:01:25.879Z,32.10
2022-08-26T14:03:55.296Z,32.40
2022-08-26T14:06:23.543Z,32.70
2022-08-26T14:08:51.551Z,32.00
2022-08-26T14:11:19.796Z,32.40
2022-08-26T14:13:47.704Z,32.20
2022-08-26T14:16:22.544Z,32.20
2022-08-26T14:18:51.153Z,32.10
2022-08-26T14:21:20.591Z,32.10
2022-08-26T14:23:48.658Z,31.50
2022-08-26T14:26:28.155Z,31.00
2022-08-26T14:28:57.002Z,30.90
2022-08-26T14:31:26.825Z,30.90
2022-08-26T14:33:55.350Z,31.00
2022-08-26T14:36:32.118Z,30.80
2022-08-26T14:39:02.687Z,30.30
2022-08-26T14:41:32.122Z,29.80
2022-08-26T14:44:02.931Z,29.30
2022-08-26T14:46:33.350Z,28.90
2022-08-26T14:49:05.255Z,29.00
2022-08-26T14:51:37.184Z,29.10
2022-08-26T14:54:14.061Z,29.10
2022-08-26T14:56:45.845Z,29.20
2022-08-26T14:59:14.716Z,29.40
2022-08-26T15:01:43.063Z,29.00
2022-08-26T15:04:11.573Z,28.70
2022-08-26T15:06:41.065Z,28.50
2022-08-26T15:09:09.279Z,28.40
2022-08-26T15:11:37.439Z,28.20
2022-08-26T15:14:06.327Z,28.20
2022-08-26T15:16:35.031Z,28.10
2022-08-26T15:19:04.605Z,28.10
2022-08-26T15:21:33.221Z,27.90
2022-08-26T15:24:03.657Z,27.90
2022-08-26T15:26:33.459Z,27.90
2022-08-26T15:29:04.814Z,27.90
2022-08-26T15:31:34.986Z,27.90
2022-08-26T15:34:06.364Z,27.90
2022-08-26T15:36:35.276Z,28.00
2022-08-26T15:39:06.808Z,28.10
2022-08-26T15:41:35.319Z,28.10
2022-08-26T15:44:05.046Z,28.20
2022-08-26T15:46:33.607Z,28.00
2022-08-26T15:49:02.288Z,27.90
2022-08-26T15:51:32.509Z,28.00
2022-08-26T15:54:05.198Z,28.00
2022-08-26T15:56:39.508Z,28.00
2022-08-26T15:59:08.902Z,28.10
2022-08-26T16:01:37.453Z,28.40
2022-08-26T16:04:05.850Z,28.40
2022-08-26T16:06:35.650Z,28.60
2022-08-26T16:09:06.195Z,28.70
2022-08-26T16:11:35.852Z,28.80
2022-08-26T16:14:04.819Z,28.90
2022-08-26T16:16:33.213Z,28.50
2022-08-26T16:19:06.838Z,28.60
2022-08-26T16:21:36.215Z,28.50
2022-08-26T16:24:06.189Z,28.50
2022-08-26T16:26:36.848Z,28.40
2022-08-26T16:29:07.580Z,28.30
2022-08-26T16:31:37.261Z,28.10
2022-08-26T16:34:05.667Z,28.00
2022-08-26T16:36:33.985Z,28.00
2022-08-26T16:39:02.020Z,28.10
2022-08-26T16:41:32.662Z,28.10
2022-08-26T16:44:01.443Z,28.00
2022-08-26T16:46:29.941Z,28.00
2022-08-26T16:48:59.527Z,28.00
2022-08-26T16:51:28.988Z,27.80
2022-08-26T16:53:58.852Z,27.80
2022-08-26T16:56:33.576Z,27.80
2022-08-26T16:59:05.032Z,27.80
2022-08-26T17:01:33.773Z,27.80
2022-08-26T17:04:04.354Z,27.70
2022-08-26T17:06:32.608Z,27.50
2022-08-26T17:09:00.578Z,27.50
2022-08-26T17:11:28.574Z,27.50
2022-08-26T17:13:57.038Z,27.30
2022-08-26T17:16:27.220Z,27.40
2022-08-26T17:18:56.453Z,27.40
2022-08-26T17:21:24.958Z,27.40
2022-08-26T17:23:53.176Z,27.50
2022-08-26T17:26:21.558Z,27.50
2022-08-26T17:28:49.887Z,27.40
2022-08-26T17:31:18.155Z,27.20
2022-08-26T17:33:53.897Z,27.20
2022-08-26T17:36:27.602Z,27.10
2022-08-26T17:38:57.341Z,27.10
2022-08-26T17:41:25.887Z,26.90
2022-08-26T17:43:53.957Z,26.70
2022-08-26T17:46:22.193Z,26.70
2022-08-26T17:48:51.668Z,26.70
2022-08-26T17:51:20.749Z,26.70
2022-08-26T17:53:50.448Z,26.60
2022-08-26T17:56:23.912Z,26.60
2022-08-26T17:58:53.560Z,26.50
2022-08-26T18:01:25.938Z,26.50
2022-08-26T18:04:00.332Z,26.40
2022-08-26T18:06:30.325Z,26.20
2022-08-26T18:08:58.758Z,26.10
2022-08-26T18:11:27.989Z,26.00
2022-08-26T18:13:56.092Z,26.10
2022-08-26T18:16:24.342Z,26.10
2022-08-26T18:18:53.473Z,26.10
2022-08-26T18:21:25.870Z,26.00
2022-08-26T18:23:55.384Z,26.00
2022-08-26T18:26:27.570Z,25.90
2022-08-26T18:28:56.794Z,25.70
2022-08-26T18:31:25.715Z,25.70
2022-08-26T18:33:54.262Z,25.70
2022-08-26T18:36:26.106Z,25.70
2022-08-26T18:38:55.623Z,25.60
2022-08-26T18:41:34.843Z,25.60
2022-08-26T18:44:02.914Z,25.50
2022-08-26T18:46:30.999Z,25.10
2022-08-26T18:48:59.654Z,24.40
2022-08-26T18:51:31.145Z,23.20
2022-08-26T18:54:00.335Z,23.00
2022-08-26T18:56:29.386Z,22.50
2022-08-26T18:58:58.263Z,22.10
2022-08-26T19:01:27.694Z,21.90
2022-08-26T19:03:56.471Z,21.90
2022-08-26T19:06:25.671Z,21.80
2022-08-26T19:08:55.690Z,21.50
2022-08-26T19:11:32.097Z,21.50
2022-08-26T19:14:01.870Z,21.60
2022-08-26T19:16:31.107Z,21.60
2022-08-26T19:19:00.973Z,21.30
2022-08-26T19:21:30.214Z,21.20
2022-08-26T19:24:00.917Z,21.10
2022-08-26T19:26:30.136Z,21.00
2022-08-26T19:28:58.510Z,21.00
2022-08-26T19:31:26.897Z,20.90
2022-08-26T19:33:56.614Z,21.00
2022-08-26T19:36:26.136Z,21.00
2022-08-26T19:38:55.816Z,21.10
2022-08-26T19:41:36.920Z,21.20
2022-08-26T19:44:09.470Z,21.40
2022-08-26T19:49:07.166Z,21.60
2022-08-26T19:51:36.595Z,21.60
2022-08-26T19:54:05.630Z,21.60
2022-08-26T19:56:34.997Z,21.70
2022-08-26T19:59:02.994Z,21.70
2022-08-26T20:01:31.704Z,21.50
2022-08-26T20:03:59.784Z,21.30
2022-08-26T20:06:27.778Z,21.20
2022-08-26T20:08:56.252Z,21.20
2022-08-26T20:11:24.889Z,21.10
2022-08-26T20:13:54.325Z,21.00
2022-08-26T20:16:22.409Z,20.80
2022-08-26T20:19:08.057Z,20.70
2022-08-26T20:21:38.835Z,20.80
2022-08-26T20:24:09.358Z,20.80
2022-08-26T20:26:39.300Z,20.80
2022-08-26T20:29:10.286Z,20.60
2022-08-26T20:31:39.042Z,20.50
2022-08-26T20:34:08.182Z,20.40
2022-08-26T20:36:38.124Z,20.40
2022-08-26T20:39:06.335Z,20.20
2022-08-26T20:41:35.363Z,20.20
2022-08-26T20:44:03.567Z,20.10
2022-08-26T20:46:34.567Z,20.10
2022-08-26T20:49:03.124Z,20.00
2022-08-26T20:51:34.631Z,20.00
2022-08-26T20:54:02.616Z,19.90
2022-08-26T20:56:30.623Z,19.90
2022-08-26T20:59:01.646Z,19.80
2022-08-26T21:01:34.616Z,19.80
2022-08-26T21:04:05.212Z,19.80
2022-08-26T21:06:34.835Z,19.80
2022-08-26T21:09:03.971Z,19.90
2022-08-26T21:11:32.016Z,20.00
2022-08-26T21:14:06.679Z,19.90
2022-08-26T21:16:37.135Z,19.90
2022-08-26T21:19:06.137Z,19.80
2022-08-26T21:21:34.627Z,19.80
2022-08-26T21:24:03.729Z,19.80
2022-08-26T21:26:32.498Z,19.90
2022-08-26T21:29:03.433Z,19.80
2022-08-26T21:31:49.181Z,19.80
2022-08-26T21:34:21.338Z,19.80
2022-08-26T21:36:49.764Z,19.80
2022-08-26T21:39:17.919Z,19.80
2022-08-26T21:41:47.208Z,19.80
2022-08-26T21:44:16.175Z,19.80
2022-08-26T21:46:45.574Z,19.70
2022-08-26T21:49:16.766Z,19.70
2022-08-26T21:51:47.172Z,19.80
2022-08-26T21:54:15.957Z,19.90
2022-08-26T21:56:47.201Z,19.80
2022-08-26T21:59:17.383Z,19.90
2022-08-26T22:01:45.809Z,20.00
2022-08-26T22:04:15.567Z,19.90
2022-08-26T22:06:45.906Z,19.80
2022-08-26T22:09:16.351Z,19.80
2022-08-26T22:11:45.742Z,19.80
2022-08-26T22:14:14.555Z,19.70
2022-08-26T22:16:50.175Z,19.80
2022-08-26T22:19:20.943Z,19.80
2022-08-26T22:21:53.390Z,19.80
2022-08-26T22:24:24.591Z,19.70
2022-08-26T22:26:53.108Z,19.70
2022-08-26T22:29:21.686Z,19.70
2022-08-26T22:31:49.820Z,19.70
2022-08-26T22:34:20.255Z,19.70
2022-08-26T22:36:51.058Z,19.70
2022-08-26T22:39:22.401Z,19.70
2022-08-26T22:41:50.974Z,19.70
2022-08-26T22:44:20.503Z,19.70
2022-08-26T22:46:49.397Z,19.70
2022-08-26T22:49:18.237Z,19.60
2022-08-26T22:51:47.047Z,19.50
2022-08-26T22:54:17.283Z,19.50
2022-08-26T22:56:46.078Z,19.60
2022-08-26T22:59:16.158Z,19.50
2022-08-26T23:01:46.319Z,19.50
2022-08-26T23:04:14.701Z,19.40
2022-08-26T23:06:47.611Z,19.40
2022-08-26T23:09:18.792Z,19.40
2022-08-26T23:11:48.279Z,19.40
2022-08-26T23:14:17.090Z,19.40
2022-08-26T23:16:45.132Z,19.50
2022-08-26T23:19:14.872Z,19.50
2022-08-26T23:21:43.016Z,19.40
2022-08-26T23:24:12.174Z,19.40
2022-08-26T23:26:43.216Z,19.50
2022-08-26T23:29:13.175Z,19.50
2022-08-26T23:31:42.462Z,19.50
2022-08-26T23:34:29.820Z,19.50
2022-08-26T23:36:58.485Z,19.50
2022-08-26T23:39:26.750Z,19.50
2022-08-26T23:41:56.860Z,19.50
2022-08-26T23:44:26.393Z,19.60
2022-08-26T23:46:54.451Z,19.60
2022-08-26T23:49:22.730Z,19.70
2022-08-26T23:52:08.552Z,19.70
2022-08-26T23:54:36.587Z,19.70
2022-08-26T23:57:06.791Z,19.80
2022-08-26T23:59:35.231Z,19.70
